createdAt,value
2019-02-22T00:00:53.750Z,99.90
2019-02-22T00:03:24.378Z,99.90
2019-02-22T00:05:54.550Z,99.90
2019-02-22T00:08:24.956Z,99.90
2019-02-22T00:10:55.412Z,99.90
2019-02-22T00:13:25.574Z,99.90
2019-02-22T00:15:56.206Z,99.90
2019-02-22T00:18:26.538Z,99.90
2019-02-22T00:20:57.076Z,99.90
2019-02-22T00:23:27.284Z,99.90
2019-02-22T00:25:57.520Z,99.90
2019-02-22T00:28:28.171Z,99.90
2019-02-22T00:30:58.704Z,99.90
2019-02-22T00:33:29.349Z,99.90
2019-02-22T00:35:59.447Z,99.90
2019-02-22T00:38:30.033Z,99.90
2019-02-22T00:41:00.665Z,99.40
2019-02-22T00:43:31.370Z,99.20
2019-02-22T00:46:01.923Z,99.10
2019-02-22T00:48:32.618Z,98.00
2019-02-22T00:51:02.942Z,97.50
2019-02-22T00:53:33.163Z,97.30
2019-02-22T00:56:03.732Z,97.00
2019-02-22T00:58:33.568Z,97.20
2019-02-22T01:01:04.208Z,97.00
2019-02-22T01:03:34.903Z,96.90
2019-02-22T01:06:05.098Z,96.80
2019-02-22T01:08:35.844Z,96.40
2019-02-22T01:11:06.097Z,96.40
2019-02-22T01:13:36.656Z,96.50
2019-02-22T01:16:07.354Z,96.60
2019-02-22T01:18:37.905Z,96.30
2019-02-22T01:21:08.502Z,95.70
2019-02-22T01:23:38.726Z,95.90
2019-02-22T01:26:09.188Z,95.60
2019-02-22T01:28:39.751Z,95.60
2019-02-22T01:31:09.929Z,95.40
2019-02-22T01:33:40.259Z,95.40
2019-02-22T01:36:10.441Z,95.50
2019-02-22T01:38:40.392Z,95.20
2019-02-22T01:41:10.979Z,95.20
2019-02-22T01:43:40.943Z,95.50
2019-02-22T01:46:11.232Z,95.40
2019-02-22T01:48:41.494Z,95.10
2019-02-22T01:51:11.706Z,95.00
2019-02-22T01:53:41.962Z,95.10
2019-02-22T01:56:12.119Z,94.90
2019-02-22T01:59:01.427Z,95.20
2019-02-22T02:01:31.622Z,95.10
2019-02-22T02:04:01.834Z,95.10
2019-02-22T02:06:32.515Z,95.10
2019-02-22T02:09:03.366Z,95.00
2019-02-22T02:11:33.914Z,94.90
2019-02-22T02:14:03.898Z,95.40
2019-02-22T02:16:34.065Z,95.10
2019-02-22T02:19:04.759Z,95.30
2019-02-22T02:21:35.280Z,95.30
2019-02-22T02:24:05.476Z,95.30
2019-02-22T02:26:35.784Z,95.30
2019-02-22T02:29:06.067Z,95.70
2019-02-22T02:31:36.251Z,95.70
2019-02-22T02:34:06.941Z,95.60
2019-02-22T02:36:37.232Z,95.90
2019-02-22T02:39:07.878Z,95.90
2019-02-22T02:41:38.061Z,96.00
2019-02-22T02:44:08.183Z,95.80
2019-02-22T02:46:38.787Z,96.00
2019-02-22T02:49:09.259Z,96.10
2019-02-22T02:51:39.825Z,96.10
2019-02-22T02:54:10.475Z,95.90
2019-02-22T02:56:40.653Z,95.90
2019-02-22T02:59:11.240Z,96.10
2019-02-22T03:01:41.552Z,96.20
2019-02-22T03:04:12.044Z,96.30
2019-02-22T03:07:16.587Z,96.50
2019-02-22T03:09:47.223Z,96.60
2019-02-22T03:12:17.755Z,96.50
2019-02-22T03:14:48.016Z,96.50
2019-02-22T03:17:18.463Z,96.70
2019-02-22T03:19:49.052Z,96.60
2019-02-22T03:22:19.524Z,96.60
2019-02-22T03:24:49.295Z,96.60
2019-02-22T03:27:19.265Z,96.70
2019-02-22T03:29:49.800Z,96.90
2019-02-22T03:32:20.076Z,97.50
2019-02-22T03:34:50.340Z,97.50
2019-02-22T03:37:23.940Z,98.10
2019-02-22T03:39:54.238Z,98.80
2019-02-22T03:42:24.532Z,99.50
2019-02-22T03:44:55.295Z,99.90
2019-02-22T03:47:25.854Z,99.90
2019-02-22T03:49:56.295Z,99.90
2019-02-22T03:52:33.233Z,99.90
2019-02-22T03:55:03.872Z,99.90
2019-02-22T03:57:33.859Z,99.90
2019-02-22T04:00:04.154Z,99.90
2019-02-22T04:02:34.567Z,99.90
2019-02-22T04:05:04.764Z,99.90
2019-02-22T04:07:35.311Z,99.90
2019-02-22T04:10:05.544Z,99.90
2019-02-22T04:12:36.095Z,99.90
2019-02-22T04:15:07.100Z,99.90
2019-02-22T04:17:37.611Z,99.90
2019-02-22T04:20:07.796Z,99.90
2019-02-22T04:22:38.197Z,99.90
2019-02-22T04:25:08.969Z,99.90
2019-02-22T04:27:39.547Z,99.90
2019-02-22T04:30:10.499Z,99.90
2019-02-22T04:32:40.644Z,99.90
2019-02-22T04:35:10.941Z,99.90
2019-02-22T04:37:41.489Z,99.90
2019-02-22T04:40:11.468Z,99.90
2019-02-22T04:42:42.122Z,99.90
2019-02-22T04:45:12.358Z,99.90
2019-02-22T04:47:42.572Z,99.90
2019-02-22T04:50:12.874Z,99.90
2019-02-22T04:52:43.432Z,99.90
2019-02-22T04:55:13.980Z,99.90
2019-02-22T04:57:44.524Z,99.90
2019-02-22T05:00:14.724Z,99.90
2019-02-22T05:02:45.248Z,99.90
2019-02-22T05:05:15.888Z,99.90
2019-02-22T05:07:46.137Z,99.90
2019-02-22T05:10:16.595Z,99.90
2019-02-22T05:12:47.084Z,99.90
2019-02-22T05:15:17.617Z,99.90
2019-02-22T05:17:47.810Z,99.90
2019-02-22T05:20:18.133Z,99.90
2019-02-22T05:22:48.799Z,99.90
2019-02-22T05:25:19.374Z,99.90
2019-02-22T05:27:50.083Z,99.90
2019-02-22T05:30:20.227Z,99.90
2019-02-22T05:32:50.347Z,99.90
2019-02-22T05:35:20.923Z,99.90
2019-02-22T05:37:51.118Z,99.90
2019-02-22T05:40:21.579Z,99.90
2019-02-22T05:42:51.821Z,99.90
2019-02-22T05:45:22.302Z,99.90
2019-02-22T05:47:52.164Z,99.90
2019-02-22T05:50:22.896Z,99.90
2019-02-22T05:52:53.209Z,99.90
2019-02-22T05:55:23.820Z,99.90
2019-02-22T05:57:53.815Z,99.90
2019-02-22T06:00:24.118Z,99.90
2019-02-22T06:02:54.317Z,99.90
2019-02-22T06:05:24.571Z,99.90
2019-02-22T06:07:54.991Z,99.90
2019-02-22T06:10:24.807Z,99.90
2019-02-22T06:12:55.393Z,99.90
2019-02-22T06:15:26.080Z,99.90
2019-02-22T06:17:56.247Z,99.90
2019-02-22T06:20:26.889Z,99.90
2019-02-22T06:22:57.256Z,99.90
2019-02-22T06:25:27.827Z,99.90
2019-02-22T06:27:58.530Z,99.90
2019-02-22T06:30:29.107Z,99.90
2019-02-22T06:32:59.796Z,99.90
2019-02-22T06:35:30.071Z,99.90
2019-02-22T06:38:00.609Z,99.90
2019-02-22T06:40:30.223Z,99.90
2019-02-22T06:43:00.902Z,99.90
2019-02-22T06:45:31.437Z,99.90
2019-02-22T06:48:01.607Z,99.90
2019-02-22T06:50:34.071Z,99.90
2019-02-22T06:53:04.293Z,99.90
2019-02-22T06:55:34.593Z,99.90
2019-02-22T06:58:05.083Z,99.90
2019-02-22T07:00:35.675Z,99.90
2019-02-22T07:03:06.134Z,99.90
2019-02-22T07:05:36.364Z,99.90
2019-02-22T07:08:06.943Z,99.90
2019-02-22T07:11:05.380Z,99.90
2019-02-22T07:13:35.785Z,99.90
2019-02-22T07:16:06.097Z,99.90
2019-02-22T07:18:36.550Z,99.90
2019-02-22T07:21:06.925Z,99.90
2019-02-22T07:23:37.401Z,99.90
2019-02-22T07:26:07.947Z,99.90
2019-02-22T07:28:38.307Z,99.90
2019-02-22T07:31:08.559Z,99.90
2019-02-22T07:33:39.095Z,99.90
2019-02-22T07:36:09.679Z,99.90
2019-02-22T07:38:40.411Z,99.90
2019-02-22T07:41:11.084Z,99.90
2019-02-22T07:43:41.544Z,99.90
2019-02-22T07:46:12.099Z,99.90
2019-02-22T07:48:42.759Z,99.90
2019-02-22T07:51:13.311Z,99.90
2019-02-22T07:53:43.220Z,99.90
2019-02-22T07:56:13.612Z,99.90
2019-02-22T07:58:44.276Z,99.90
2019-02-22T08:01:14.881Z,99.90
2019-02-22T08:03:45.557Z,99.90
2019-02-22T08:06:15.857Z,99.90
2019-02-22T08:08:47.920Z,99.90
2019-02-22T08:11:18.147Z,99.90
2019-02-22T08:13:48.896Z,99.90
2019-02-22T08:16:19.398Z,99.90
2019-02-22T08:19:00.650Z,99.90
2019-02-22T08:21:22.076Z,99.90
2019-02-22T08:23:52.372Z,99.90
2019-02-22T08:26:22.563Z,99.90
2019-02-22T08:28:53.219Z,99.90
2019-02-22T08:31:23.475Z,99.90
2019-02-22T08:33:54.031Z,99.90
2019-02-22T08:36:24.633Z,99.90
2019-02-22T08:38:54.799Z,99.90
2019-02-22T08:41:25.418Z,99.90
2019-02-22T08:43:56.014Z,99.90
2019-02-22T08:46:26.641Z,99.90
2019-02-22T08:48:56.859Z,99.90
2019-02-22T08:51:27.503Z,99.90
2019-02-22T08:53:58.088Z,99.90
2019-02-22T08:56:28.295Z,99.90
2019-02-22T08:58:58.411Z,99.90
2019-02-22T09:01:28.851Z,99.90
2019-02-22T09:03:59.475Z,99.90
2019-02-22T09:06:30.110Z,99.90
2019-02-22T09:09:00.375Z,99.90
2019-02-22T09:11:30.945Z,99.90
2019-02-22T09:14:01.111Z,99.90
2019-02-22T09:16:31.549Z,99.90
2019-02-22T09:19:01.923Z,99.90
2019-02-22T09:21:31.735Z,99.90
2019-02-22T09:24:02.329Z,99.90
2019-02-22T09:26:32.623Z,99.90
2019-02-22T09:29:03.181Z,99.90
2019-02-22T09:31:33.724Z,99.90
2019-02-22T09:34:04.084Z,99.90
2019-02-22T09:36:34.310Z,99.90
2019-02-22T09:39:06.035Z,99.90
2019-02-22T09:41:36.631Z,99.90
2019-02-22T09:44:07.079Z,99.90
2019-02-22T09:46:37.525Z,99.90
2019-02-22T09:49:08.095Z,99.90
2019-02-22T09:51:41.131Z,99.90
2019-02-22T09:54:11.012Z,99.90
2019-02-22T09:56:41.177Z,99.70
2019-02-22T09:59:11.351Z,99.30
2019-02-22T10:01:41.790Z,99.20
2019-02-22T10:04:11.673Z,99.60
2019-02-22T10:06:42.271Z,99.10
2019-02-22T10:09:12.877Z,98.60
2019-02-22T10:11:43.047Z,97.30
2019-02-22T10:14:13.595Z,97.80
2019-02-22T10:16:43.539Z,97.30
2019-02-22T10:19:13.821Z,97.40
2019-02-22T10:21:44.143Z,97.20
2019-02-22T10:24:14.725Z,96.60
2019-02-22T10:26:45.325Z,96.20
2019-02-22T10:29:16.001Z,95.80
2019-02-22T10:31:46.552Z,96.00
2019-02-22T10:34:16.861Z,96.00
2019-02-22T10:36:47.442Z,95.80
2019-02-22T10:39:18.009Z,96.00
2019-02-22T10:41:48.549Z,96.50
2019-02-22T10:44:18.773Z,96.10
2019-02-22T10:46:48.587Z,95.80
2019-02-22T10:49:19.219Z,94.90
2019-02-22T10:51:49.454Z,95.40
2019-02-22T10:54:19.985Z,95.40
2019-02-22T10:56:50.519Z,95.40
2019-02-22T10:59:20.843Z,94.90
2019-02-22T11:01:50.726Z,94.90
2019-02-22T11:04:21.076Z,93.00
2019-02-22T11:06:51.738Z,92.40
2019-02-22T11:09:22.281Z,92.90
2019-02-22T11:11:52.847Z,92.60
2019-02-22T11:14:29.172Z,91.40
2019-02-22T11:16:55.021Z,91.50
2019-02-22T11:19:25.261Z,91.40
2019-02-22T11:21:55.927Z,91.30
2019-02-22T11:24:26.139Z,91.80
2019-02-22T11:26:56.721Z,92.40
2019-02-22T11:29:29.011Z,92.20
2019-02-22T11:31:59.375Z,90.60
2019-02-22T11:34:28.895Z,90.30
2019-02-22T11:36:59.491Z,89.90
2019-02-22T11:39:29.867Z,90.50
2019-02-22T11:42:00.073Z,90.00
2019-02-22T11:44:39.811Z,90.30
2019-02-22T11:47:03.014Z,90.60
2019-02-22T11:49:33.297Z,90.50
2019-02-22T11:52:03.927Z,90.90
2019-02-22T11:54:34.591Z,90.50
2019-02-22T11:57:05.611Z,91.00
2019-02-22T11:59:35.809Z,90.60
2019-02-22T12:02:06.543Z,90.70
2019-02-22T12:04:36.423Z,90.20
2019-02-22T12:07:07.303Z,90.70
2019-02-22T12:09:37.550Z,90.60
2019-02-22T12:12:08.212Z,91.00
2019-02-22T12:14:38.785Z,90.70
2019-02-22T12:17:08.635Z,90.20
2019-02-22T12:19:39.208Z,89.40
2019-02-22T12:22:09.414Z,89.90
2019-02-22T12:24:39.651Z,90.20
2019-02-22T12:27:10.197Z,90.60
2019-02-22T12:29:40.657Z,89.30
2019-02-22T12:32:11.185Z,89.70
2019-02-22T12:34:41.697Z,89.60
2019-02-22T12:37:12.157Z,90.40
2019-02-22T12:39:42.670Z,90.60
2019-02-22T12:42:13.291Z,91.20
2019-02-22T12:44:43.815Z,89.80
2019-02-22T12:47:14.267Z,90.00
2019-02-22T12:49:45.393Z,88.70
2019-02-22T12:52:15.853Z,88.70
2019-02-22T12:54:45.992Z,90.00
2019-02-22T12:57:16.668Z,89.10
2019-02-22T12:59:46.859Z,89.30
2019-02-22T13:02:17.125Z,88.50
2019-02-22T13:04:47.296Z,90.00
2019-02-22T13:07:17.511Z,87.90
2019-02-22T13:09:47.703Z,86.70
2019-02-22T13:12:17.881Z,87.20
2019-02-22T13:14:48.231Z,85.70
2019-02-22T13:17:18.499Z,85.90
2019-02-22T13:19:49.202Z,86.20
2019-02-22T13:22:20.941Z,84.30
2019-02-22T13:24:51.626Z,85.30
2019-02-22T13:27:22.202Z,84.30
2019-02-22T13:29:52.674Z,85.10
2019-02-22T13:32:23.514Z,85.80
2019-02-22T13:34:54.055Z,85.70
2019-02-22T13:37:25.439Z,84.90
2019-02-22T13:39:56.181Z,85.00
2019-02-22T13:42:26.779Z,84.80
2019-02-22T13:44:57.417Z,85.50
2019-02-22T13:47:28.251Z,85.70
2019-02-22T13:49:58.911Z,85.10
2019-02-22T13:52:30.491Z,85.70
2019-02-22T13:55:01.253Z,85.00
2019-02-22T13:57:32.020Z,84.30
2019-02-22T14:00:02.129Z,84.90
2019-02-22T14:02:33.556Z,83.40
2019-02-22T14:05:04.306Z,83.60
2019-02-22T14:07:35.002Z,82.20
2019-02-22T14:10:05.645Z,83.60
2019-02-22T14:12:35.610Z,83.10
2019-02-22T14:15:06.817Z,83.10
2019-02-22T14:17:37.575Z,82.70
2019-02-22T14:20:09.251Z,83.40
2019-02-22T14:22:40.031Z,83.70
2019-02-22T14:25:10.732Z,84.20
2019-02-22T14:27:41.317Z,84.20
2019-02-22T14:30:12.505Z,84.20
2019-02-22T14:32:42.847Z,84.50
2019-02-22T14:35:13.571Z,83.80
2019-02-22T14:37:44.230Z,84.30
2019-02-22T14:40:14.332Z,85.00
2019-02-22T14:42:44.722Z,84.10
2019-02-22T14:45:15.357Z,84.80
2019-02-22T14:47:46.123Z,83.80
2019-02-22T14:50:17.106Z,83.90
2019-02-22T14:52:47.511Z,84.20
2019-02-22T14:55:18.257Z,84.40
2019-02-22T14:57:48.346Z,84.40
2019-02-22T15:00:18.774Z,84.20
2019-02-22T15:02:49.444Z,83.00
2019-02-22T15:05:20.256Z,82.20
2019-02-22T15:07:50.864Z,82.70
2019-02-22T15:10:21.867Z,82.50
2019-02-22T15:12:52.516Z,81.90
2019-02-22T15:15:25.787Z,81.80
2019-02-22T15:17:59.262Z,80.40
2019-02-22T15:20:29.905Z,81.30
2019-02-22T15:23:02.519Z,81.20
2019-02-22T15:25:33.109Z,82.40
2019-02-22T15:28:03.727Z,82.20
2019-02-22T15:30:34.627Z,82.80
2019-02-22T15:33:05.699Z,83.20
2019-02-22T15:35:36.480Z,83.00
2019-02-22T15:38:06.897Z,82.60
2019-02-22T15:40:39.284Z,83.90
2019-02-22T15:43:09.670Z,83.90
2019-02-22T15:45:40.058Z,84.20
2019-02-22T15:48:14.578Z,84.60
2019-02-22T15:50:44.964Z,84.50
2019-02-22T15:53:15.465Z,83.60
2019-02-22T15:55:45.694Z,84.60
2019-02-22T15:58:16.314Z,84.50
2019-02-22T16:00:46.603Z,84.60
2019-02-22T16:03:16.920Z,84.30
2019-02-22T16:05:47.323Z,84.40
2019-02-22T16:08:17.915Z,84.60
2019-02-22T16:10:48.582Z,85.20
2019-02-22T16:13:19.198Z,85.20
2019-02-22T16:15:49.575Z,86.80
2019-02-22T16:18:20.109Z,87.60
2019-02-22T16:20:50.587Z,88.10
2019-02-22T16:23:21.267Z,89.00
2019-02-22T16:25:51.857Z,89.60
2019-02-22T16:28:22.228Z,90.20
2019-02-22T16:30:52.800Z,90.40
2019-02-22T16:33:23.108Z,90.80
2019-02-22T16:35:53.723Z,90.90
2019-02-22T16:38:23.635Z,91.20
2019-02-22T16:40:53.873Z,91.50
2019-02-22T16:43:24.548Z,91.50
2019-02-22T16:45:55.197Z,91.00
2019-02-22T16:48:25.572Z,90.30
2019-02-22T16:50:55.755Z,90.70
2019-02-22T16:53:26.516Z,90.70
2019-02-22T16:55:56.726Z,91.10
2019-02-22T16:58:27.391Z,91.20
2019-02-22T17:00:57.695Z,91.30
2019-02-22T17:03:27.873Z,91.50
2019-02-22T17:05:58.259Z,91.50
2019-02-22T17:08:28.545Z,91.70
2019-02-22T17:10:59.226Z,91.80
2019-02-22T17:13:29.755Z,91.80
2019-02-22T17:16:00.243Z,91.90
2019-02-22T17:18:30.527Z,91.80
2019-02-22T17:21:00.761Z,91.90
2019-02-22T17:23:30.750Z,92.10
2019-02-22T17:26:01.401Z,92.20
2019-02-22T17:28:32.036Z,92.50
2019-02-22T17:31:02.689Z,92.60
2019-02-22T17:33:32.593Z,92.80
2019-02-22T17:36:02.749Z,92.80
2019-02-22T17:38:33.107Z,92.80
2019-02-22T17:41:03.616Z,92.70
2019-02-22T17:43:34.211Z,92.70
2019-02-22T17:46:04.377Z,93.30
2019-02-22T17:48:34.707Z,92.90
2019-02-22T17:51:05.365Z,93.00
2019-02-22T17:53:35.721Z,92.90
2019-02-22T17:56:06.271Z,93.00
2019-02-22T17:58:36.515Z,93.20
2019-02-22T18:01:06.457Z,93.50
2019-02-22T18:03:36.927Z,93.50
2019-02-22T18:06:06.821Z,93.60
2019-02-22T18:08:37.471Z,93.50
2019-02-22T18:11:07.800Z,94.10
2019-02-22T18:13:38.286Z,94.00
2019-02-22T18:16:08.560Z,94.20
2019-02-22T18:18:39.097Z,94.40
2019-02-22T18:21:09.297Z,94.40
2019-02-22T18:23:39.874Z,94.30
2019-02-22T18:26:10.499Z,94.00
2019-02-22T18:28:41.072Z,94.60
2019-02-22T18:31:11.597Z,95.20
2019-02-22T18:33:42.183Z,95.30
2019-02-22T18:36:12.651Z,95.20
2019-02-22T18:38:43.146Z,95.20
2019-02-22T18:41:13.793Z,95.70
2019-02-22T18:43:44.432Z,95.80
2019-02-22T18:46:14.738Z,95.80
2019-02-22T18:48:45.221Z,95.80
2019-02-22T18:51:19.171Z,95.60
2019-02-22T18:53:49.855Z,95.50
2019-02-22T18:56:20.452Z,95.20
2019-02-22T18:58:51.099Z,95.20
2019-02-22T19:01:21.704Z,94.90
2019-02-22T19:03:52.475Z,94.90
2019-02-22T19:06:23.110Z,94.60
2019-02-22T19:08:53.975Z,94.60
2019-02-22T19:11:24.368Z,94.50
2019-02-22T19:13:54.697Z,94.30
2019-02-22T19:16:24.961Z,94.40
2019-02-22T19:18:55.177Z,94.40
2019-02-22T19:21:25.574Z,94.40
2019-02-22T19:23:56.889Z,94.50
2019-02-22T19:26:27.567Z,94.30
2019-02-22T19:28:58.263Z,94.40
2019-02-22T19:31:28.291Z,94.40
2019-02-22T19:33:58.948Z,94.50
2019-02-22T19:36:29.745Z,94.70
2019-02-22T19:39:00.463Z,94.60
2019-02-22T19:41:31.277Z,94.80
2019-02-22T19:44:01.981Z,94.80
2019-02-22T19:46:32.531Z,94.90
2019-02-22T19:49:02.873Z,95.10
2019-02-22T19:51:33.447Z,95.20
2019-02-22T19:54:04.129Z,95.40
2019-02-22T19:56:34.460Z,95.60
2019-02-22T19:59:04.363Z,95.70
2019-02-22T20:01:34.828Z,95.90
2019-02-22T20:04:05.643Z,96.00
2019-02-22T20:06:36.424Z,96.00
2019-02-22T20:09:07.939Z,95.90
2019-02-22T20:11:38.152Z,95.80
2019-02-22T20:14:08.866Z,96.00
2019-02-22T20:16:39.512Z,95.90
2019-02-22T20:19:10.184Z,95.80
2019-02-22T20:21:41.103Z,95.90
2019-02-22T20:24:11.148Z,96.20
2019-02-22T20:26:41.939Z,96.30
2019-02-22T20:29:12.755Z,96.20
2019-02-22T20:31:43.527Z,96.20
2019-02-22T20:34:14.173Z,96.30
2019-02-22T20:36:45.009Z,96.60
2019-02-22T20:39:15.329Z,96.40
2019-02-22T20:41:45.977Z,96.40
2019-02-22T20:44:16.734Z,96.40
2019-02-22T20:46:47.060Z,96.30
2019-02-22T20:49:17.789Z,96.50
2019-02-22T20:51:48.555Z,96.50
2019-02-22T20:54:18.940Z,96.60
2019-02-22T20:56:49.523Z,96.10
2019-02-22T20:59:20.163Z,96.30
2019-02-22T21:01:50.428Z,96.60
2019-02-22T21:04:20.532Z,96.30
2019-02-22T21:06:51.082Z,96.70
2019-02-22T21:09:21.321Z,96.70
2019-02-22T21:11:51.953Z,97.10
2019-02-22T21:14:22.557Z,97.50
2019-02-22T21:16:53.130Z,97.70
2019-02-22T21:19:23.787Z,98.00
2019-02-22T21:21:54.466Z,97.90
2019-02-22T21:24:25.226Z,97.70
2019-02-22T21:26:55.423Z,98.00
2019-02-22T21:29:26.081Z,98.60
2019-02-22T21:31:56.609Z,98.40
2019-02-22T21:34:27.363Z,98.30
2019-02-22T21:36:58.155Z,98.50
2019-02-22T21:39:28.899Z,98.90
2019-02-22T21:41:59.205Z,98.80
2019-02-22T21:44:29.857Z,98.70
2019-02-22T21:47:00.483Z,98.90
2019-02-22T21:49:31.189Z,98.80
2019-02-22T21:52:01.893Z,98.50
2019-02-22T21:54:32.123Z,98.50
2019-02-22T21:57:02.769Z,98.50
2019-02-22T21:59:33.487Z,98.50
2019-02-22T22:02:03.711Z,98.30
2019-02-22T22:04:34.033Z,98.30
2019-02-22T22:07:04.801Z,98.30
2019-02-22T22:09:35.064Z,97.80
2019-02-22T22:12:09.683Z,97.80
2019-02-22T22:14:40.383Z,97.70
2019-02-22T22:17:10.000Z,97.70
2019-02-22T22:19:41.817Z,97.50
2019-02-22T22:22:12.773Z,97.60
2019-02-22T22:24:43.368Z,97.60
2019-02-22T22:27:14.541Z,97.30
2019-02-22T22:29:44.915Z,97.50
2019-02-22T22:32:15.573Z,97.50
2019-02-22T22:34:46.365Z,97.60
2019-02-22T22:37:17.189Z,97.70
2019-02-22T22:39:47.790Z,97.50
2019-02-22T22:42:18.456Z,97.70
2019-02-22T22:44:48.923Z,98.00
2019-02-22T22:47:20.042Z,98.10
2019-02-22T22:49:50.703Z,98.10
2019-02-22T22:52:21.861Z,98.10
2019-02-22T22:54:52.655Z,97.50
2019-02-22T22:57:23.409Z,97.50
2019-02-22T22:59:54.242Z,97.50
2019-02-22T23:02:25.131Z,97.60
2019-02-22T23:04:55.708Z,98.00
2019-02-22T23:07:25.857Z,98.30
2019-02-22T23:09:56.467Z,98.60
2019-02-22T23:12:27.423Z,98.50
2019-02-22T23:14:57.841Z,98.80
2019-02-22T23:17:28.532Z,98.60
2019-02-22T23:19:59.279Z,98.60
2019-02-22T23:22:29.535Z,98.40
2019-02-22T23:25:00.343Z,98.50
2019-02-22T23:27:30.394Z,98.10
2019-02-22T23:30:00.788Z,97.60
2019-02-22T23:32:31.207Z,97.50
2019-02-22T23:35:01.494Z,97.50
2019-02-22T23:37:32.005Z,97.20
2019-02-22T23:40:02.378Z,97.20
2019-02-22T23:42:32.753Z,97.30
2019-02-22T23:45:03.445Z,97.40
2019-02-22T23:47:33.923Z,97.10
2019-02-22T23:50:03.861Z,97.00
2019-02-22T23:52:34.681Z,96.90
2019-02-22T23:55:05.263Z,97.30
2019-02-22T23:57:35.979Z,97.30
